createdAt,value
2018-04-24T02:15:56.229Z,1012.41
2018-04-24T02:15:56.800Z,1012.41
2018-04-24T02:15:57.400Z,1012.39
2018-04-24T02:15:58.000Z,1012.39
2018-04-24T02:15:58.599Z,1012.43
2018-04-24T02:15:59.204Z,1012.42
2018-04-24T02:15:59.799Z,1012.41
2018-04-24T02:16:00.398Z,1012.38
2018-04-24T02:16:53.856Z,1012.42
2018-04-24T02:16:54.454Z,1012.43
2018-04-24T02:16:55.054Z,1012.38
2018-04-24T02:16:55.653Z,1012.43
2018-04-24T02:16:56.256Z,1012.41
2018-04-24T02:16:56.851Z,1012.44
2018-04-24T02:16:57.452Z,1012.45
2018-04-24T02:16:58.052Z,1012.42
2018-04-24T02:17:52.564Z,1012.38
2018-04-24T02:17:53.129Z,1012.34
2018-04-24T02:17:53.727Z,1012.36
2018-04-24T02:17:54.327Z,1012.37
2018-04-24T02:17:54.932Z,1012.34
2018-04-24T02:17:55.526Z,1012.33
2018-04-24T02:17:56.124Z,1012.34
2018-04-24T02:17:56.726Z,1012.36
2018-04-24T02:18:51.207Z,1012.31
2018-04-24T02:18:51.804Z,1012.32
2018-04-24T02:18:52.404Z,1012.30
2018-04-24T02:18:53.007Z,1012.30
2018-04-24T02:18:53.604Z,1012.27
2018-04-24T02:18:54.202Z,1012.28
2018-04-24T02:18:54.808Z,1012.30
2018-04-24T02:18:55.401Z,1012.27
2018-04-24T02:19:49.885Z,1012.24
2018-04-24T02:19:50.485Z,1012.28
2018-04-24T02:19:51.080Z,1012.23
2018-04-24T02:19:51.679Z,1012.29
2018-04-24T02:19:52.279Z,1012.23
2018-04-24T02:19:52.878Z,1012.28
2018-04-24T02:19:53.480Z,1012.25
2018-04-24T02:19:54.080Z,1012.25
2018-04-24T02:20:47.539Z,1012.24
2018-04-24T02:20:48.142Z,1012.23
2018-04-24T02:20:48.732Z,1012.25
2018-04-24T02:20:49.332Z,1012.26
2018-04-24T02:20:49.932Z,1012.27
2018-04-24T02:20:50.587Z,1012.29
2018-04-24T02:20:51.133Z,1012.26
2018-04-24T02:20:51.732Z,1012.23
2018-04-24T02:21:46.219Z,1012.30
2018-04-24T02:21:46.809Z,1012.27
2018-04-24T02:21:47.407Z,1012.32
2018-04-24T02:21:48.006Z,1012.27
2018-04-24T02:21:48.607Z,1012.27
2018-04-24T02:21:49.207Z,1012.28
2018-04-24T02:21:49.805Z,1012.27
2018-04-24T02:21:50.405Z,1012.27
2018-04-24T02:22:43.894Z,1012.38
2018-04-24T02:22:44.541Z,1012.36
2018-04-24T02:22:45.061Z,1012.39
2018-04-24T02:22:45.663Z,1012.37
2018-04-24T02:22:46.262Z,1012.38
2018-04-24T02:22:46.862Z,1012.35
2018-04-24T02:22:47.462Z,1012.41
2018-04-24T02:22:48.061Z,1012.37
2018-04-24T02:23:41.550Z,1012.38
2018-04-24T02:23:42.113Z,1012.42
2018-04-24T02:23:42.713Z,1012.36
2018-04-24T02:23:43.315Z,1012.38
2018-04-24T02:23:43.912Z,1012.41
2018-04-24T02:23:44.513Z,1012.41
2018-04-24T02:23:45.118Z,1012.39
2018-04-24T02:23:45.712Z,1012.39
2018-04-24T02:24:39.169Z,1012.36
2018-04-24T02:24:39.767Z,1012.41
2018-04-24T02:24:40.365Z,1012.39
2018-04-24T02:24:40.966Z,1012.39
2018-04-24T02:24:41.566Z,1012.38
2018-04-24T02:24:42.166Z,1012.40
2018-04-24T02:24:42.776Z,1012.37
2018-04-24T02:24:43.364Z,1012.41
2018-04-24T02:25:36.824Z,1012.38
2018-04-24T02:25:37.418Z,1012.37
2018-04-24T02:25:38.017Z,1012.35
2018-04-24T02:25:38.616Z,1012.39
2018-04-24T02:25:39.217Z,1012.38
2018-04-24T02:25:39.816Z,1012.34
2018-04-24T02:25:40.419Z,1012.37
2018-04-24T02:25:41.016Z,1012.33
2018-04-24T02:26:34.473Z,1012.34
2018-04-24T02:26:35.071Z,1012.36
2018-04-24T02:26:35.670Z,1012.32
2018-04-24T02:26:36.271Z,1012.36
2018-04-24T02:26:36.870Z,1012.32
2018-04-24T02:26:37.470Z,1012.33
2018-04-24T02:26:38.072Z,1012.33
2018-04-24T02:26:38.669Z,1012.35
2018-04-24T02:27:32.125Z,1012.32
2018-04-24T02:27:32.723Z,1012.32
2018-04-24T02:27:33.320Z,1012.33
2018-04-24T02:27:33.921Z,1012.34
2018-04-24T02:27:34.521Z,1012.35
2018-04-24T02:27:35.121Z,1012.36
2018-04-24T02:27:35.736Z,1012.33
2018-04-24T02:27:36.326Z,1012.33
2018-04-24T02:28:29.776Z,1012.34
2018-04-24T02:28:30.378Z,1012.30
2018-04-24T02:28:30.973Z,1012.34
2018-04-24T02:28:31.572Z,1012.34
2018-04-24T02:28:32.173Z,1012.34
2018-04-24T02:28:32.773Z,1012.35
2018-04-24T02:28:33.377Z,1012.33
2018-04-24T02:28:33.972Z,1012.32
2018-04-24T02:29:27.460Z,1012.37
2018-04-24T02:29:28.029Z,1012.38
2018-04-24T02:29:28.624Z,1012.35
2018-04-24T02:29:29.225Z,1012.37
2018-04-24T02:29:29.827Z,1012.37
2018-04-24T02:29:30.425Z,1012.36
2018-04-24T02:29:31.031Z,1012.34
2018-04-24T02:29:31.625Z,1012.36
2018-04-24T02:30:25.079Z,1012.42
2018-04-24T02:30:25.677Z,1012.45
2018-04-24T02:30:26.278Z,1012.42
2018-04-24T02:30:26.878Z,1012.43
2018-04-24T02:30:27.476Z,1012.43
2018-04-24T02:30:28.077Z,1012.43
2018-04-24T02:30:28.679Z,1012.43
2018-04-24T02:30:29.275Z,1012.44
2018-04-24T02:31:22.731Z,1012.55
2018-04-24T02:31:23.328Z,1012.54
2018-04-24T02:31:23.929Z,1012.51
2018-04-24T02:31:24.528Z,1012.52
2018-04-24T02:31:25.128Z,1012.51
2018-04-24T02:31:25.727Z,1012.54
2018-04-24T02:31:26.331Z,1012.52
2018-04-24T02:31:26.927Z,1012.50
2018-04-24T02:32:20.384Z,1012.55
2018-04-24T02:32:20.981Z,1012.57
2018-04-24T02:32:21.580Z,1012.59
2018-04-24T02:32:22.187Z,1012.58
2018-04-24T02:32:22.779Z,1012.56
2018-04-24T02:32:23.380Z,1012.55
2018-04-24T02:32:23.985Z,1012.56
2018-04-24T02:32:24.578Z,1012.58
2018-04-24T02:33:18.044Z,1012.61
2018-04-24T02:33:18.632Z,1012.59
2018-04-24T02:33:19.232Z,1012.55
2018-04-24T02:33:19.833Z,1012.54
2018-04-24T02:33:20.431Z,1012.57
2018-04-24T02:33:21.031Z,1012.58
2018-04-24T02:33:21.632Z,1012.56
2018-04-24T02:33:22.232Z,1012.56
2018-04-24T02:34:15.687Z,1012.49
2018-04-24T02:34:16.284Z,1012.49
2018-04-24T02:34:16.887Z,1012.49
2018-04-24T02:34:17.482Z,1012.50
2018-04-24T02:34:18.085Z,1012.46
2018-04-24T02:34:18.682Z,1012.47
2018-04-24T02:34:19.284Z,1012.50
2018-04-24T02:34:19.883Z,1012.49
2018-04-24T02:35:13.365Z,1012.44
2018-04-24T02:35:13.935Z,1012.43
2018-04-24T02:35:14.536Z,1012.42
2018-04-24T02:35:15.136Z,1012.45
2018-04-24T02:35:15.736Z,1012.46
2018-04-24T02:35:16.335Z,1012.47
2018-04-24T02:35:16.936Z,1012.45
2018-04-24T02:35:17.535Z,1012.45
2018-04-24T02:36:10.993Z,1012.49
2018-04-24T02:36:11.589Z,1012.48
2018-04-24T02:36:12.187Z,1012.49
2018-04-24T02:36:12.791Z,1012.48
2018-04-24T02:36:13.391Z,1012.49
2018-04-24T02:36:13.987Z,1012.52
2018-04-24T02:36:14.587Z,1012.47
2018-04-24T02:36:15.190Z,1012.48
2018-04-24T02:37:08.643Z,1012.53
2018-04-24T02:37:09.240Z,1012.51
2018-04-24T02:37:09.840Z,1012.48
2018-04-24T02:37:10.439Z,1012.50
2018-04-24T02:37:11.041Z,1012.50
2018-04-24T02:37:11.637Z,1012.53
2018-04-24T02:37:12.245Z,1012.51
2018-04-24T02:37:12.843Z,1012.51
2018-04-24T02:38:06.294Z,1012.52
2018-04-24T02:38:06.890Z,1012.54
2018-04-24T02:38:07.491Z,1012.52
2018-04-24T02:38:08.091Z,1012.53
2018-04-24T02:38:08.690Z,1012.53
2018-04-24T02:38:09.289Z,1012.53
2018-04-24T02:38:09.892Z,1012.54
2018-04-24T02:38:10.491Z,1012.51
2018-04-24T02:39:03.946Z,1012.47
2018-04-24T02:39:04.546Z,1012.50
2018-04-24T02:39:05.145Z,1012.51
2018-04-24T02:39:05.743Z,1012.47
2018-04-24T02:39:06.342Z,1012.47
2018-04-24T02:39:06.942Z,1012.49
2018-04-24T02:39:07.544Z,1012.52
2018-04-24T02:39:08.145Z,1012.53
2018-04-24T02:40:01.631Z,1012.44
2018-04-24T02:40:02.204Z,1012.42
2018-04-24T02:40:02.798Z,1012.49
2018-04-24T02:40:03.395Z,1012.46
2018-04-24T02:40:03.994Z,1012.42
2018-04-24T02:40:04.594Z,1012.45
2018-04-24T02:40:05.195Z,1012.45
2018-04-24T02:40:05.794Z,1012.49
2018-04-24T02:41:00.274Z,1012.50
2018-04-24T02:41:00.870Z,1012.49
2018-04-24T02:41:01.470Z,1012.43
2018-04-24T02:41:02.070Z,1012.53
2018-04-24T02:41:02.669Z,1012.48
2018-04-24T02:41:03.268Z,1012.51
2018-04-24T02:41:03.874Z,1012.45
2018-04-24T02:41:04.469Z,1012.49
2018-04-24T02:41:58.949Z,1012.50
2018-04-24T02:41:59.545Z,1012.49
2018-04-24T02:42:00.145Z,1012.50
2018-04-24T02:42:00.744Z,1012.52
2018-04-24T02:42:01.344Z,1012.50
2018-04-24T02:42:01.950Z,1012.47
2018-04-24T02:42:02.549Z,1012.51
2018-04-24T02:42:03.144Z,1012.47
2018-04-24T02:42:56.599Z,1012.45
2018-04-24T02:42:57.198Z,1012.42
2018-04-24T02:42:57.810Z,1012.45
2018-04-24T02:42:58.399Z,1012.40
2018-04-24T02:42:59.009Z,1012.44
2018-04-24T02:42:59.597Z,1012.41
2018-04-24T02:43:00.197Z,1012.42
2018-04-24T02:43:00.799Z,1012.43
2018-04-24T02:43:54.253Z,1012.37
2018-04-24T02:43:54.849Z,1012.41
2018-04-24T02:43:55.493Z,1012.37
2018-04-24T02:43:56.057Z,1012.39
2018-04-24T02:43:56.657Z,1012.40
2018-04-24T02:43:57.251Z,1012.37
2018-04-24T02:43:57.850Z,1012.36
2018-04-24T02:43:58.448Z,1012.37
2018-04-24T02:44:51.905Z,1012.34
2018-04-24T02:44:52.504Z,1012.34
2018-04-24T02:44:53.102Z,1012.34
2018-04-24T02:44:53.701Z,1012.33
2018-04-24T02:44:54.301Z,1012.32
2018-04-24T02:44:54.901Z,1012.31
2018-04-24T02:44:55.501Z,1012.34
2018-04-24T02:44:56.099Z,1012.29
2018-04-24T02:45:49.587Z,1012.29
2018-04-24T02:45:50.154Z,1012.26
2018-04-24T02:45:50.756Z,1012.33
2018-04-24T02:45:51.354Z,1012.27
2018-04-24T02:45:51.953Z,1012.26
2018-04-24T02:45:52.552Z,1012.28
2018-04-24T02:45:53.153Z,1012.30
2018-04-24T02:45:53.752Z,1012.28
2018-04-24T02:46:48.231Z,1012.27
2018-04-24T02:46:48.826Z,1012.26
2018-04-24T02:46:49.434Z,1012.23
2018-04-24T02:46:50.025Z,1012.27
2018-04-24T02:46:50.634Z,1012.26
2018-04-24T02:46:51.226Z,1012.22
2018-04-24T02:46:51.831Z,1012.23
2018-04-24T02:46:52.424Z,1012.24
2018-04-24T02:47:45.885Z,1012.26
2018-04-24T02:47:46.478Z,1012.23
2018-04-24T02:47:47.078Z,1012.25
2018-04-24T02:47:47.679Z,1012.27
2018-04-24T02:47:48.280Z,1012.23
2018-04-24T02:47:48.878Z,1012.25
2018-04-24T02:47:49.478Z,1012.29
2018-04-24T02:47:50.084Z,1012.26
2018-04-24T02:48:44.558Z,1012.26
2018-04-24T02:48:45.155Z,1012.28
2018-04-24T02:48:45.753Z,1012.23
2018-04-24T02:48:46.355Z,1012.27
2018-04-24T02:48:46.955Z,1012.24
2018-04-24T02:48:47.554Z,1012.24
2018-04-24T02:48:48.154Z,1012.25
2018-04-24T02:48:48.753Z,1012.26
2018-04-24T02:49:42.211Z,1012.22
2018-04-24T02:49:42.807Z,1012.21
2018-04-24T02:49:43.408Z,1012.22
2018-04-24T02:49:44.009Z,1012.21
2018-04-24T02:49:44.610Z,1012.21
2018-04-24T02:49:45.211Z,1012.23
2018-04-24T02:49:45.806Z,1012.27
2018-04-24T02:49:46.406Z,1012.26
2018-04-24T02:50:40.895Z,1012.23
2018-04-24T02:50:41.486Z,1012.23
2018-04-24T02:50:42.083Z,1012.26
2018-04-24T02:50:42.684Z,1012.22
2018-04-24T02:50:43.284Z,1012.25
2018-04-24T02:50:43.881Z,1012.25
2018-04-24T02:50:44.484Z,1012.24
2018-04-24T02:50:45.080Z,1012.25
2018-04-24T02:51:38.566Z,1012.21
2018-04-24T02:51:39.136Z,1012.24
2018-04-24T02:51:39.739Z,1012.23
2018-04-24T02:51:40.336Z,1012.24
2018-04-24T02:51:40.937Z,1012.24
2018-04-24T02:51:41.535Z,1012.22
2018-04-24T02:51:42.138Z,1012.24
2018-04-24T02:51:42.731Z,1012.25
2018-04-24T02:52:36.190Z,1012.26
2018-04-24T02:52:36.787Z,1012.26
2018-04-24T02:52:37.385Z,1012.23
2018-04-24T02:52:37.995Z,1012.26
2018-04-24T02:52:38.586Z,1012.27
2018-04-24T02:52:39.185Z,1012.26
2018-04-24T02:52:39.785Z,1012.27
2018-04-24T02:52:40.384Z,1012.25
2018-04-24T02:53:34.864Z,1012.18
2018-04-24T02:53:35.463Z,1012.20
2018-04-24T02:53:36.060Z,1012.17
2018-04-24T02:53:36.661Z,1012.17
2018-04-24T02:53:37.265Z,1012.18
2018-04-24T02:53:37.860Z,1012.20
2018-04-24T02:53:38.461Z,1012.21
2018-04-24T02:53:39.059Z,1012.19
2018-04-24T02:54:32.519Z,1012.24
2018-04-24T02:54:33.113Z,1012.20
2018-04-24T02:54:33.716Z,1012.26
2018-04-24T02:54:34.312Z,1012.26
2018-04-24T02:54:34.914Z,1012.21
2018-04-24T02:54:35.512Z,1012.22
2018-04-24T02:54:36.112Z,1012.22
2018-04-24T02:54:36.719Z,1012.21
2018-04-24T02:55:31.191Z,1012.18
2018-04-24T02:55:31.788Z,1012.21
2018-04-24T02:55:32.393Z,1012.18
2018-04-24T02:55:32.989Z,1012.18
2018-04-24T02:55:33.589Z,1012.20
2018-04-24T02:55:34.187Z,1012.19
2018-04-24T02:55:34.788Z,1012.21
2018-04-24T02:55:35.390Z,1012.21
2018-04-24T02:56:29.901Z,1012.19
2018-04-24T02:56:30.464Z,1012.19
2018-04-24T02:56:31.069Z,1012.21
2018-04-24T02:56:31.664Z,1012.19
2018-04-24T02:56:32.265Z,1012.19
2018-04-24T02:56:32.865Z,1012.21
2018-04-24T02:56:33.477Z,1012.20
2018-04-24T02:56:34.063Z,1012.20
2018-04-24T02:57:28.544Z,1012.19
2018-04-24T02:57:29.141Z,1012.20
2018-04-24T02:57:29.828Z,1012.17
2018-04-24T02:57:30.340Z,1012.19
2018-04-24T02:57:30.940Z,1012.18
2018-04-24T02:57:31.539Z,1012.18
2018-04-24T02:57:32.139Z,1012.20
2018-04-24T02:57:32.738Z,1012.15
2018-04-24T02:58:27.221Z,1012.23
2018-04-24T02:58:27.819Z,1012.20
2018-04-24T02:58:28.415Z,1012.19
2018-04-24T02:58:29.019Z,1012.21
2018-04-24T02:58:29.614Z,1012.18
2018-04-24T02:58:30.216Z,1012.17
2018-04-24T02:58:30.816Z,1012.19
2018-04-24T02:58:31.415Z,1012.17
2018-04-24T02:59:25.895Z,1012.22
2018-04-24T02:59:26.491Z,1012.20
2018-04-24T02:59:27.090Z,1012.18
2018-04-24T02:59:27.691Z,1012.19
2018-04-24T02:59:28.290Z,1012.22
2018-04-24T02:59:28.890Z,1012.25
2018-04-24T02:59:29.491Z,1012.22
2018-04-24T02:59:30.091Z,1012.24
2018-04-24T03:00:23.636Z,1012.21
2018-04-24T03:00:24.148Z,1012.24
2018-04-24T03:00:24.744Z,1012.24
2018-04-24T03:00:25.342Z,1012.24
2018-04-24T03:00:25.945Z,1012.21
2018-04-24T03:00:26.544Z,1012.21
2018-04-24T03:00:27.143Z,1012.23
2018-04-24T03:00:27.744Z,1012.24
2018-04-24T03:01:21.199Z,1012.25
2018-04-24T03:01:21.862Z,1012.24
2018-04-24T03:01:22.396Z,1012.22
2018-04-24T03:01:22.995Z,1012.23
2018-04-24T03:01:23.595Z,1012.22
2018-04-24T03:01:24.195Z,1012.22
2018-04-24T03:01:24.797Z,1012.22
2018-04-24T03:01:25.394Z,1012.22
2018-04-24T03:02:19.899Z,1012.25
2018-04-24T03:02:20.469Z,1012.23
2018-04-24T03:02:21.073Z,1012.25
2018-04-24T03:02:21.669Z,1012.26
2018-04-24T03:02:22.269Z,1012.24
2018-04-24T03:02:22.869Z,1012.25
2018-04-24T03:02:23.470Z,1012.24
2018-04-24T03:02:24.068Z,1012.23
2018-04-24T03:03:17.528Z,1012.27
2018-04-24T03:03:18.130Z,1012.24
2018-04-24T03:03:18.728Z,1012.30
2018-04-24T03:03:19.322Z,1012.26
2018-04-24T03:03:19.932Z,1012.28
2018-04-24T03:03:20.577Z,1012.27
2018-04-24T03:03:21.127Z,1012.24
2018-04-24T03:03:21.722Z,1012.28
2018-04-24T03:04:16.201Z,1012.27
2018-04-24T03:04:16.796Z,1012.26
2018-04-24T03:04:17.397Z,1012.26
2018-04-24T03:04:17.997Z,1012.27
2018-04-24T03:04:18.596Z,1012.31
2018-04-24T03:04:19.195Z,1012.30
2018-04-24T03:04:19.797Z,1012.27
2018-04-24T03:04:20.395Z,1012.25
2018-04-24T03:05:26.551Z,1012.29
2018-04-24T03:05:27.146Z,1012.26
2018-04-24T03:05:27.745Z,1012.29
2018-04-24T03:05:28.354Z,1012.30
2018-04-24T03:05:28.947Z,1012.27
2018-04-24T03:05:29.547Z,1012.28
2018-04-24T03:05:30.153Z,1012.27
2018-04-24T03:05:30.747Z,1012.29
2018-04-24T03:06:24.202Z,1012.29
2018-04-24T03:06:24.801Z,1012.27
2018-04-24T03:06:25.400Z,1012.28
2018-04-24T03:06:25.998Z,1012.31
2018-04-24T03:06:26.603Z,1012.28
2018-04-24T03:06:27.199Z,1012.29
2018-04-24T03:06:27.800Z,1012.31
2018-04-24T03:06:28.397Z,1012.32
2018-04-24T03:07:22.910Z,1012.33
2018-04-24T03:07:23.474Z,1012.32
2018-04-24T03:07:24.074Z,1012.29
2018-04-24T03:07:24.673Z,1012.29
2018-04-24T03:07:25.274Z,1012.30
2018-04-24T03:07:25.874Z,1012.26
2018-04-24T03:07:26.473Z,1012.30
2018-04-24T03:07:27.075Z,1012.30
2018-04-24T03:08:21.552Z,1012.29
2018-04-24T03:08:22.151Z,1012.30
2018-04-24T03:08:22.756Z,1012.27
2018-04-24T03:08:23.351Z,1012.30
2018-04-24T03:08:23.949Z,1012.31
2018-04-24T03:08:24.551Z,1012.31
2018-04-24T03:08:25.150Z,1012.33
2018-04-24T03:08:25.750Z,1012.31
2018-04-24T03:09:19.308Z,1012.29
2018-04-24T03:09:19.906Z,1012.29
2018-04-24T03:09:20.504Z,1012.30
2018-04-24T03:09:21.104Z,1012.28
2018-04-24T03:09:21.704Z,1012.30
2018-04-24T03:09:22.304Z,1012.30
2018-04-24T03:09:22.903Z,1012.29
2018-04-24T03:09:23.503Z,1012.31
2018-04-24T03:10:16.960Z,1012.29
2018-04-24T03:10:17.557Z,1012.31
2018-04-24T03:10:18.155Z,1012.30
2018-04-24T03:10:18.756Z,1012.28
2018-04-24T03:10:19.356Z,1012.30
2018-04-24T03:10:19.956Z,1012.30
2018-04-24T03:10:20.555Z,1012.30
2018-04-24T03:10:21.156Z,1012.26
2018-04-24T03:11:14.613Z,1012.21
2018-04-24T03:11:15.207Z,1012.19
2018-04-24T03:11:15.807Z,1012.24
2018-04-24T03:11:16.407Z,1012.24
2018-04-24T03:11:17.007Z,1012.23
2018-04-24T03:11:17.607Z,1012.25
2018-04-24T03:11:18.206Z,1012.25
2018-04-24T03:11:18.806Z,1012.26
2018-04-24T03:12:12.266Z,1012.29
2018-04-24T03:12:12.860Z,1012.24
2018-04-24T03:29:12.615Z,1012.08
2018-04-24T03:29:13.233Z,1012.10
2018-04-24T03:29:13.776Z,1012.08
2018-04-24T03:29:14.376Z,1012.06
2018-04-24T03:29:14.976Z,1012.06
2018-04-24T03:29:15.577Z,1012.08
2018-04-24T03:29:16.175Z,1012.09
2018-04-24T03:29:16.775Z,1012.09
2018-04-24T03:30:11.263Z,1012.07
2018-04-24T03:30:11.858Z,1012.06
2018-04-24T03:30:12.453Z,1012.07
2018-04-24T03:30:13.051Z,1012.07
2018-04-24T03:30:13.651Z,1012.04
2018-04-24T03:30:14.251Z,1012.08
2018-04-24T03:30:14.851Z,1012.07
2018-04-24T03:30:15.450Z,1012.02
2018-04-24T03:31:08.910Z,1012.04
2018-04-24T03:31:09.609Z,1012.05
2018-04-24T03:31:10.106Z,1012.07
2018-04-24T03:31:10.707Z,1012.05
2018-04-24T03:31:11.306Z,1012.05
2018-04-24T03:31:11.907Z,1012.05
2018-04-24T03:31:12.509Z,1012.06
2018-04-24T03:31:13.105Z,1012.08
2018-04-24T03:32:06.561Z,1012.06
2018-04-24T03:32:07.158Z,1012.07
2018-04-24T03:32:07.757Z,1012.04
2018-04-24T03:32:08.359Z,1012.04
2018-04-24T03:32:08.958Z,1012.06
2018-04-24T03:32:09.557Z,1012.04
2018-04-24T03:32:10.166Z,1012.06
2018-04-24T03:32:10.756Z,1012.05
2018-04-24T03:33:04.213Z,1012.10
2018-04-24T03:33:04.809Z,1012.13
2018-04-24T03:33:05.411Z,1012.10
2018-04-24T03:33:06.011Z,1012.07
2018-04-24T03:33:06.610Z,1012.10
2018-04-24T03:33:07.210Z,1012.08
2018-04-24T03:33:07.813Z,1012.09
2018-04-24T03:33:08.410Z,1012.09
2018-04-24T03:34:01.866Z,1012.15
2018-04-24T03:34:02.462Z,1012.14
2018-04-24T03:34:03.064Z,1012.14
2018-04-24T03:34:03.661Z,1012.14
2018-04-24T03:34:04.261Z,1012.14
2018-04-24T03:34:04.861Z,1012.18
2018-04-24T03:34:05.462Z,1012.14
2018-04-24T03:34:06.060Z,1012.18
2018-04-24T03:34:59.545Z,1012.16
2018-04-24T03:35:00.119Z,1012.17
2018-04-24T03:35:00.714Z,1012.15
2018-04-24T03:35:01.314Z,1012.14
2018-04-24T03:35:01.915Z,1012.13
2018-04-24T03:35:02.514Z,1012.13
2018-04-24T03:35:03.113Z,1012.15
2018-04-24T03:35:03.714Z,1012.17
2018-04-24T03:35:57.170Z,1012.17
2018-04-24T03:35:57.769Z,1012.21
2018-04-24T03:35:58.365Z,1012.15
2018-04-24T03:35:58.967Z,1012.20
2018-04-24T03:35:59.567Z,1012.15
2018-04-24T03:36:00.169Z,1012.16
2018-04-24T03:36:00.764Z,1012.14
2018-04-24T03:36:01.405Z,1012.14
2018-04-24T03:36:54.821Z,1012.19
2018-04-24T03:36:55.419Z,1012.22
2018-04-24T03:36:56.017Z,1012.24
2018-04-24T03:36:56.618Z,1012.24
2018-04-24T03:36:57.309Z,1012.23
2018-04-24T03:36:57.817Z,1012.20
2018-04-24T03:36:58.417Z,1012.23
2018-04-24T03:36:59.017Z,1012.25
2018-04-24T03:37:52.474Z,1012.17
2018-04-24T03:37:53.070Z,1012.17
2018-04-24T03:37:53.672Z,1012.19
2018-04-24T03:37:54.270Z,1012.20
2018-04-24T03:37:54.868Z,1012.14
2018-04-24T03:37:55.471Z,1012.19
2018-04-24T03:37:56.069Z,1012.19
2018-04-24T03:37:56.670Z,1012.17
2018-04-24T03:38:50.126Z,1012.15
2018-04-24T03:38:50.722Z,1012.12
2018-04-24T03:38:51.321Z,1012.14
2018-04-24T03:38:51.921Z,1012.12
2018-04-24T03:38:52.522Z,1012.15
2018-04-24T03:38:53.121Z,1012.16
2018-04-24T03:38:53.720Z,1012.16
2018-04-24T03:38:54.321Z,1012.14
2018-04-24T03:39:47.808Z,1012.11
2018-04-24T03:39:48.373Z,1012.14
2018-04-24T03:39:48.973Z,1012.14
2018-04-24T03:39:49.574Z,1012.16
2018-04-24T03:39:50.172Z,1012.13
2018-04-24T03:39:50.774Z,1012.15
2018-04-24T03:39:51.374Z,1012.17
2018-04-24T03:39:51.974Z,1012.14
2018-04-24T03:40:45.429Z,1012.13
2018-04-24T03:40:46.026Z,1012.14
2018-04-24T03:40:46.628Z,1012.13
2018-04-24T03:40:47.226Z,1012.09
2018-04-24T03:40:47.824Z,1012.17
2018-04-24T03:40:48.430Z,1012.13
2018-04-24T03:40:49.024Z,1012.15
2018-04-24T03:40:49.624Z,1012.14
2018-04-24T03:41:43.081Z,1012.14
2018-04-24T03:41:43.677Z,1012.13
2018-04-24T03:41:44.277Z,1012.13
2018-04-24T03:41:44.876Z,1012.12
2018-04-24T03:41:45.475Z,1012.17
2018-04-24T03:41:46.077Z,1012.11
2018-04-24T03:41:46.676Z,1012.12
2018-04-24T03:41:47.275Z,1012.12
2018-04-24T03:42:40.734Z,1012.12
2018-04-24T03:42:41.330Z,1012.12
2018-04-24T03:42:41.929Z,1012.15
2018-04-24T03:42:42.534Z,1012.14
2018-04-24T03:42:43.129Z,1012.11
2018-04-24T03:42:43.730Z,1012.09
2018-04-24T03:42:44.330Z,1012.08
2018-04-24T03:42:44.929Z,1012.09
2018-04-24T03:43:38.385Z,1012.11
2018-04-24T03:43:38.983Z,1012.08
2018-04-24T03:43:39.581Z,1012.08
2018-04-24T03:43:40.181Z,1012.07
2018-04-24T03:43:40.780Z,1012.11
2018-04-24T03:43:41.381Z,1012.08
2018-04-24T03:43:41.984Z,1012.09
2018-04-24T03:43:42.581Z,1012.07
2018-04-24T03:44:36.036Z,1012.02
2018-04-24T03:44:36.632Z,1012.04
2018-04-24T03:44:37.233Z,1012.04
2018-04-24T03:44:37.833Z,1012.04
2018-04-24T03:44:38.432Z,1012.06
2018-04-24T03:44:39.040Z,1012.06
2018-04-24T03:44:39.634Z,1012.03
2018-04-24T03:44:40.232Z,1012.01
2018-04-24T03:45:33.713Z,1012.03
2018-04-24T03:45:34.284Z,1012.03
2018-04-24T03:45:34.884Z,1012.03
2018-04-24T03:45:35.484Z,1012.04
2018-04-24T03:45:36.083Z,1012.03
2018-04-24T03:45:36.686Z,1012.03
2018-04-24T03:45:37.285Z,1012.02
2018-04-24T03:45:37.883Z,1012.02
2018-04-24T03:46:31.343Z,1012.04
2018-04-24T03:46:31.936Z,1012.05
2018-04-24T03:46:32.536Z,1012.08
2018-04-24T03:46:33.137Z,1012.05
2018-04-24T03:46:33.736Z,1012.04
2018-04-24T03:46:34.336Z,1012.04
2018-04-24T03:46:34.938Z,1012.02
2018-04-24T03:46:35.536Z,1012.03
2018-04-24T03:47:30.016Z,1012.00
2018-04-24T03:47:30.612Z,1011.98
2018-04-24T03:47:31.212Z,1011.99
2018-04-24T03:47:31.812Z,1011.98
2018-04-24T03:47:32.411Z,1012.02
2018-04-24T03:47:33.011Z,1012.01
2018-04-24T03:47:33.611Z,1012.02
2018-04-24T03:47:34.211Z,1012.01
2018-04-24T03:48:27.667Z,1011.98
2018-04-24T03:48:28.262Z,1011.98
2018-04-24T03:48:28.863Z,1011.99
2018-04-24T03:48:29.463Z,1012.01
2018-04-24T03:48:30.063Z,1011.97
2018-04-24T03:48:30.664Z,1011.94
2018-04-24T03:48:31.264Z,1011.97
2018-04-24T03:48:31.862Z,1011.96
2018-04-24T03:49:25.320Z,1011.97
2018-04-24T03:49:25.916Z,1011.97
2018-04-24T03:49:26.514Z,1011.98
2018-04-24T03:49:27.115Z,1011.96
2018-04-24T03:49:27.718Z,1011.96
2018-04-24T03:49:28.315Z,1011.98
2018-04-24T03:49:28.915Z,1011.98
2018-04-24T03:49:29.519Z,1011.97
2018-04-24T03:50:23.093Z,1011.96
2018-04-24T03:50:23.599Z,1011.98
2018-04-24T03:50:24.196Z,1011.98
2018-04-24T03:50:24.796Z,1011.97
2018-04-24T03:50:25.396Z,1011.97
2018-04-24T03:50:25.997Z,1011.98
2018-04-24T03:50:26.595Z,1011.97
2018-04-24T03:50:27.196Z,1011.98
2018-04-24T03:51:20.724Z,1012.00
2018-04-24T03:51:21.324Z,1011.98
2018-04-24T03:51:21.923Z,1011.98
2018-04-24T03:51:22.522Z,1012.00
2018-04-24T03:51:23.124Z,1012.00
2018-04-24T03:51:23.723Z,1011.99
2018-04-24T03:51:24.321Z,1012.02
2018-04-24T03:51:24.921Z,1011.97
2018-04-24T03:52:18.376Z,1012.03
2018-04-24T03:52:18.974Z,1012.03
2018-04-24T03:52:19.576Z,1012.02
2018-04-24T03:52:20.174Z,1012.01
2018-04-24T03:52:20.781Z,1012.08
2018-04-24T03:52:21.373Z,1012.05
2018-04-24T03:52:21.974Z,1012.06
2018-04-24T03:52:22.571Z,1012.06
2018-04-24T03:53:16.035Z,1012.03
2018-04-24T03:53:16.624Z,1012.04
2018-04-24T03:53:17.225Z,1012.03
2018-04-24T03:53:17.823Z,1012.01
2018-04-24T03:53:18.424Z,1012.06
2018-04-24T03:53:19.024Z,1012.00
2018-04-24T03:53:19.625Z,1012.04
2018-04-24T03:53:20.227Z,1012.06
2018-04-24T03:54:13.679Z,1012.04
2018-04-24T03:54:14.276Z,1012.06
2018-04-24T03:54:14.880Z,1012.06
2018-04-24T03:54:15.479Z,1012.00
2018-04-24T03:54:16.077Z,1012.08
2018-04-24T03:54:16.676Z,1012.04
2018-04-24T03:54:17.276Z,1012.05
2018-04-24T03:54:17.878Z,1012.05
2018-04-24T03:55:11.330Z,1012.02
2018-04-24T03:55:11.928Z,1012.02
2018-04-24T03:55:12.528Z,1012.07
2018-04-24T03:55:13.130Z,1012.03
2018-04-24T03:55:13.728Z,1012.05
2018-04-24T03:55:14.327Z,1012.02
2018-04-24T03:55:14.927Z,1012.01
2018-04-24T03:55:15.527Z,1012.04
2018-04-24T03:56:09.009Z,1011.97
2018-04-24T03:56:09.581Z,1011.97
2018-04-24T03:56:10.181Z,1011.97
2018-04-24T03:56:10.780Z,1011.96
2018-04-24T03:56:11.380Z,1011.97
2018-04-24T03:56:11.980Z,1011.98
2018-04-24T03:56:12.580Z,1011.98
2018-04-24T03:56:13.179Z,1011.99
2018-04-24T03:57:06.634Z,1011.96
2018-04-24T03:57:07.271Z,1011.97
2018-04-24T03:57:07.855Z,1011.97
2018-04-24T03:57:08.457Z,1011.95
2018-04-24T03:57:09.107Z,1011.96
2018-04-24T03:57:09.666Z,1011.98
2018-04-24T03:57:10.264Z,1011.93
2018-04-24T03:57:10.836Z,1011.93
2018-04-24T03:58:04.288Z,1011.92
2018-04-24T03:58:04.884Z,1011.90
2018-04-24T03:58:05.489Z,1011.94
2018-04-24T03:58:06.083Z,1011.94
2018-04-24T03:58:06.687Z,1011.90
2018-04-24T03:58:07.291Z,1011.94
2018-04-24T03:58:07.882Z,1011.95
2018-04-24T03:58:08.483Z,1011.91
2018-04-24T03:59:02.058Z,1011.94
2018-04-24T03:59:02.565Z,1011.93
2018-04-24T03:59:03.169Z,1011.94
2018-04-24T03:59:03.765Z,1011.93
2018-04-24T03:59:04.365Z,1011.93
2018-04-24T03:59:04.962Z,1011.92
2018-04-24T03:59:05.561Z,1011.92
2018-04-24T03:59:06.165Z,1011.93
2018-04-24T03:59:59.721Z,1011.95
2018-04-24T04:00:00.291Z,1011.95
2018-04-24T04:00:00.898Z,1011.91
2018-04-24T04:00:01.491Z,1011.92